sensor_id;sensor_type;location;lat;lon;timestamp;temperature;humidity
76838;DHT22;65797;47.352;8.164;2023-03-02T00:04:41;1.50;1.00
76838;DHT22;65797;47.352;8.164;2023-03-02T00:07:12;1.50;1.00
76838;DHT22;65797;47.352;8.164;2023-03-02T00:09:39;1.50;1.00
76838;DHT22;65797;47.352;8.164;2023-03-02T00:12:06;1.50;1.00
76838;DHT22;65797;47.352;8.164;2023-03-02T00:14:32;1.40;1.00
76838;DHT22;65797;47.352;8.164;2023-03-02T00:16:58;1.40;1.00
76838;DHT22;65797;47.352;8.164;2023-03-02T00:19:23;1.50;1.00
76838;DHT22;65797;47.352;8.164;2023-03-02T00:21:49;1.50;1.00
76838;DHT22;65797;47.352;8.164;2023-03-02T00:24:15;1.50;1.00
76838;DHT22;65797;47.352;8.164;2023-03-02T00:26:41;1.50;1.00
76838;DHT22;65797;47.352;8.164;2023-03-02T00:29:07;1.50;1.00
76838;DHT22;65797;47.352;8.164;2023-03-02T00:31:33;1.60;1.00
76838;DHT22;65797;47.352;8.164;2023-03-02T00:33:58;1.60;1.00
76838;DHT22;65797;47.352;8.164;2023-03-02T00:36:24;1.50;1.00
76838;DHT22;65797;47.352;8.164;2023-03-02T00:38:51;1.50;1.00
76838;DHT22;65797;47.352;8.164;2023-03-02T00:41:17;1.50;1.00
76838;DHT22;65797;47.352;8.164;2023-03-02T00:43:45;1.50;1.00
76838;DHT22;65797;47.352;8.164;2023-03-02T00:46:12;1.50;1.00
76838;DHT22;65797;47.352;8.164;2023-03-02T00:48:38;1.50;1.00
76838;DHT22;65797;47.352;8.164;2023-03-02T00:51:05;1.50;1.00
76838;DHT22;65797;47.352;8.164;2023-03-02T00:53:32;1.50;1.00
76838;DHT22;65797;47.352;8.164;2023-03-02T00:55:58;1.40;1.00
76838;DHT22;65797;47.352;8.164;2023-03-02T00:58:25;1.40;1.00
76838;DHT22;65797;47.352;8.164;2023-03-02T01:00:51;1.40;1.00
76838;DHT22;65797;47.352;8.164;2023-03-02T01:03:17;1.40;6.20
76838;DHT22;65797;47.352;8.164;2023-03-02T01:05:42;1.30;1.00
76838;DHT22;65797;47.352;8.164;2023-03-02T01:08:08;1.30;1.00
76838;DHT22;65797;47.352;8.164;2023-03-02T01:10:34;1.30;28.30
76838;DHT22;65797;47.352;8.164;2023-03-02T01:13:00;1.30;1.00
76838;DHT22;65797;47.352;8.164;2023-03-02T01:15:26;1.30;1.00
76838;DHT22;65797;47.352;8.164;2023-03-02T01:17:51;1.30;1.00
76838;DHT22;65797;47.352;8.164;2023-03-02T01:20:17;1.30;1.00
76838;DHT22;65797;47.352;8.164;2023-03-02T01:22:43;1.40;1.00
76838;DHT22;65797;47.352;8.164;2023-03-02T01:25:10;1.40;1.00
76838;DHT22;65797;47.352;8.164;2023-03-02T01:27:38;1.40;1.00
76838;DHT22;65797;47.352;8.164;2023-03-02T01:30:06;1.40;1.00
76838;DHT22;65797;47.352;8.164;2023-03-02T01:32:32;1.50;18.20
76838;DHT22;65797;47.352;8.164;2023-03-02T01:34:58;1.40;12.30
76838;DHT22;65797;47.352;8.164;2023-03-02T01:37:23;1.50;1.00
76838;DHT22;65797;47.352;8.164;2023-03-02T01:39:49;1.40;1.00
76838;DHT22;65797;47.352;8.164;2023-03-02T01:42:15;1.50;16.20
76838;DHT22;65797;47.352;8.164;2023-03-02T01:44:44;1.40;1.00
76838;DHT22;65797;47.352;8.164;2023-03-02T01:49:50;1.40;1.00
76838;DHT22;65797;47.352;8.164;2023-03-02T01:52:17;1.40;1.00
76838;DHT22;65797;47.352;8.164;2023-03-02T01:54:45;1.40;1.00
76838;DHT22;65797;47.352;8.164;2023-03-02T01:57:15;1.40;1.00
76838;DHT22;65797;47.352;8.164;2023-03-02T01:59:43;1.40;1.00
76838;DHT22;65797;47.352;8.164;2023-03-02T02:02:11;1.40;1.00
76838;DHT22;65797;47.352;8.164;2023-03-02T02:04:39;1.50;1.00
76838;DHT22;65797;47.352;8.164;2023-03-02T02:07:08;1.40;15.70
76838;DHT22;65797;47.352;8.164;2023-03-02T02:09:46;1.40;52.60
76838;DHT22;65797;47.352;8.164;2023-03-02T02:12:18;1.40;29.80
76838;DHT22;65797;47.352;8.164;2023-03-02T02:14:45;1.40;1.00
76838;DHT22;65797;47.352;8.164;2023-03-02T02:17:12;1.40;1.00
76838;DHT22;65797;47.352;8.164;2023-03-02T02:25:39;1.40;10.80
76838;DHT22;65797;47.352;8.164;2023-03-02T02:28:16;1.40;29.90
76838;DHT22;65797;47.352;8.164;2023-03-02T02:30:42;1.40;13.70
76838;DHT22;65797;47.352;8.164;2023-03-02T02:33:13;1.40;1.00
76838;DHT22;65797;47.352;8.164;2023-03-02T02:35:40;1.50;1.00
76838;DHT22;65797;47.352;8.164;2023-03-02T02:38:07;1.50;1.60
76838;DHT22;65797;47.352;8.164;2023-03-02T02:43:08;1.50;78.70
76838;DHT22;65797;47.352;8.164;2023-03-02T02:45:35;1.50;98.00
76838;DHT22;65797;47.352;8.164;2023-03-02T02:48:01;1.50;99.90
76838;DHT22;65797;47.352;8.164;2023-03-02T02:50:32;1.50;99.90
76838;DHT22;65797;47.352;8.164;2023-03-02T02:53:10;1.50;99.90
76838;DHT22;65797;47.352;8.164;2023-03-02T02:55:37;1.50;99.90
76838;DHT22;65797;47.352;8.164;2023-03-02T02:58:52;1.50;99.90
76838;DHT22;65797;47.352;8.164;2023-03-02T03:00:59;1.50;99.90
76838;DHT22;65797;47.352;8.164;2023-03-02T03:03:26;1.40;99.90
76838;DHT22;65797;47.352;8.164;2023-03-02T03:05:57;1.50;99.90
76838;DHT22;65797;47.352;8.164;2023-03-02T03:11:17;1.50;99.90
76838;DHT22;65797;47.352;8.164;2023-03-02T03:13:45;1.50;99.90
76838;DHT22;65797;47.352;8.164;2023-03-02T03:16:14;1.40;99.90
76838;DHT22;65797;47.352;8.164;2023-03-02T03:18:44;1.40;99.90
76838;DHT22;65797;47.352;8.164;2023-03-02T03:21:11;1.50;99.90
76838;DHT22;65797;47.352;8.164;2023-03-02T03:23:37;1.50;99.90
76838;DHT22;65797;47.352;8.164;2023-03-02T03:26:05;1.50;99.90
76838;DHT22;65797;47.352;8.164;2023-03-02T03:28:31;1.50;99.90
76838;DHT22;65797;47.352;8.164;2023-03-02T03:30:58;1.50;99.90
76838;DHT22;65797;47.352;8.164;2023-03-02T03:33:24;1.50;99.90
76838;DHT22;65797;47.352;8.164;2023-03-02T03:35:49;1.50;56.40
76838;DHT22;65797;47.352;8.164;2023-03-02T03:38:15;1.60;36.20
76838;DHT22;65797;47.352;8.164;2023-03-02T03:40:41;1.50;19.80
76838;DHT22;65797;47.352;8.164;2023-03-02T03:43:07;1.50;1.00
76838;DHT22;65797;47.352;8.164;2023-03-02T03:45:33;1.60;1.00
76838;DHT22;65797;47.352;8.164;2023-03-02T03:47:58;1.60;1.00
76838;DHT22;65797;47.352;8.164;2023-03-02T03:50:24;1.60;1.00
76838;DHT22;65797;47.352;8.164;2023-03-02T03:52:50;1.60;1.00
76838;DHT22;65797;47.352;8.164;2023-03-02T03:55:16;1.60;1.00
76838;DHT22;65797;47.352;8.164;2023-03-02T03:57:42;1.60;1.00
76838;DHT22;65797;47.352;8.164;2023-03-02T04:00:10;1.60;1.00
76838;DHT22;65797;47.352;8.164;2023-03-02T04:02:39;1.60;1.00
76838;DHT22;65797;47.352;8.164;2023-03-02T04:05:06;1.60;59.10
76838;DHT22;65797;47.352;8.164;2023-03-02T04:07:34;1.60;68.60
76838;DHT22;65797;47.352;8.164;2023-03-02T04:10:00;1.60;1.00
76838;DHT22;65797;47.352;8.164;2023-03-02T04:12:33;1.60;20.40
76838;DHT22;65797;47.352;8.164;2023-03-02T04:14:59;1.60;1.00
76838;DHT22;65797;47.352;8.164;2023-03-02T04:17:26;1.60;1.00
76838;DHT22;65797;47.352;8.164;2023-03-02T04:19:52;1.60;1.00
76838;DHT22;65797;47.352;8.164;2023-03-02T04:22:17;1.60;1.00
76838;DHT22;65797;47.352;8.164;2023-03-02T04:24:45;1.70;1.00
76838;DHT22;65797;47.352;8.164;2023-03-02T04:27:11;1.70;1.00
76838;DHT22;65797;47.352;8.164;2023-03-02T04:29:37;1.70;62.60
76838;DHT22;65797;47.352;8.164;2023-03-02T04:32:03;1.70;68.20
76838;DHT22;65797;47.352;8.164;2023-03-02T04:34:29;1.60;9.00
76838;DHT22;65797;47.352;8.164;2023-03-02T04:36:55;1.60;96.20
76838;DHT22;65797;47.352;8.164;2023-03-02T04:39:21;1.60;53.10
76838;DHT22;65797;47.352;8.164;2023-03-02T04:41:47;1.60;94.80
76838;DHT22;65797;47.352;8.164;2023-03-02T04:44:14;1.60;99.90
76838;DHT22;65797;47.352;8.164;2023-03-02T04:46:41;1.60;62.80
76838;DHT22;65797;47.352;8.164;2023-03-02T04:49:07;1.60;41.90
76838;DHT22;65797;47.352;8.164;2023-03-02T04:51:36;1.60;25.30
76838;DHT22;65797;47.352;8.164;2023-03-02T04:54:07;1.70;14.80
76838;DHT22;65797;47.352;8.164;2023-03-02T04:56:33;1.70;1.00
76838;DHT22;65797;47.352;8.164;2023-03-02T04:58:59;1.70;1.00
76838;DHT22;65797;47.352;8.164;2023-03-02T05:01:25;1.70;1.00
76838;DHT22;65797;47.352;8.164;2023-03-02T05:03:51;1.70;1.00
76838;DHT22;65797;47.352;8.164;2023-03-02T05:06:18;1.70;1.00
76838;DHT22;65797;47.352;8.164;2023-03-02T05:08:44;1.70;1.00
76838;DHT22;65797;47.352;8.164;2023-03-02T05:11:11;1.70;1.00
76838;DHT22;65797;47.352;8.164;2023-03-02T05:13:50;1.70;1.00
76838;DHT22;65797;47.352;8.164;2023-03-02T05:16:16;1.70;1.00
76838;DHT22;65797;47.352;8.164;2023-03-02T05:18:42;1.70;1.00
76838;DHT22;65797;47.352;8.164;2023-03-02T05:21:08;1.80;1.00
76838;DHT22;65797;47.352;8.164;2023-03-02T05:23:34;1.70;1.00
76838;DHT22;65797;47.352;8.164;2023-03-02T05:26:00;1.70;1.00
76838;DHT22;65797;47.352;8.164;2023-03-02T05:28:26;1.70;1.00
76838;DHT22;65797;47.352;8.164;2023-03-02T05:30:52;1.70;1.00
76838;DHT22;65797;47.352;8.164;2023-03-02T05:33:18;1.70;1.00
76838;DHT22;65797;47.352;8.164;2023-03-02T05:35:44;1.70;1.00
76838;DHT22;65797;47.352;8.164;2023-03-02T05:38:10;1.70;1.00
76838;DHT22;65797;47.352;8.164;2023-03-02T05:40:37;1.80;1.00
76838;DHT22;65797;47.352;8.164;2023-03-02T05:43:03;1.70;1.00
76838;DHT22;65797;47.352;8.164;2023-03-02T05:45:33;1.80;1.00
76838;DHT22;65797;47.352;8.164;2023-03-02T05:48:00;1.70;1.00
76838;DHT22;65797;47.352;8.164;2023-03-02T05:50:26;1.70;1.00
76838;DHT22;65797;47.352;8.164;2023-03-02T05:52:51;1.70;1.00
76838;DHT22;65797;47.352;8.164;2023-03-02T05:55:18;1.70;72.60
76838;DHT22;65797;47.352;8.164;2023-03-02T05:57:44;1.70;99.90
76838;DHT22;65797;47.352;8.164;2023-03-02T06:00:12;1.70;99.90
76838;DHT22;65797;47.352;8.164;2023-03-02T06:02:38;1.60;99.90
76838;DHT22;65797;47.352;8.164;2023-03-02T06:05:06;1.60;99.90
76838;DHT22;65797;47.352;8.164;2023-03-02T06:07:32;1.60;99.90
76838;DHT22;65797;47.352;8.164;2023-03-02T06:09:57;1.60;99.90
76838;DHT22;65797;47.352;8.164;2023-03-02T06:12:23;1.60;99.90
76838;DHT22;65797;47.352;8.164;2023-03-02T06:14:49;1.60;99.90
76838;DHT22;65797;47.352;8.164;2023-03-02T06:17:14;1.60;99.90
76838;DHT22;65797;47.352;8.164;2023-03-02T06:19:40;1.60;99.90
76838;DHT22;65797;47.352;8.164;2023-03-02T06:22:06;1.60;93.50
76838;DHT22;65797;47.352;8.164;2023-03-02T06:24:32;1.60;98.00
76838;DHT22;65797;47.352;8.164;2023-03-02T06:26:58;1.60;99.90
76838;DHT22;65797;47.352;8.164;2023-03-02T06:29:24;1.60;94.60
76838;DHT22;65797;47.352;8.164;2023-03-02T06:31:49;1.60;74.70
76838;DHT22;65797;47.352;8.164;2023-03-02T06:54:58;1.70;99.90
76838;DHT22;65797;47.352;8.164;2023-03-02T06:57:26;1.70;99.90
76838;DHT22;65797;47.352;8.164;2023-03-02T07:00:02;1.80;1.00
76838;DHT22;65797;47.352;8.164;2023-03-02T07:02:34;1.80;99.90
76838;DHT22;65797;47.352;8.164;2023-03-02T07:05:00;1.80;99.90
76838;DHT22;65797;47.352;8.164;2023-03-02T07:07:25;1.80;99.90
76838;DHT22;65797;47.352;8.164;2023-03-02T07:09:51;1.80;99.90
76838;DHT22;65797;47.352;8.164;2023-03-02T07:12:17;1.80;99.90
76838;DHT22;65797;47.352;8.164;2023-03-02T07:14:42;1.70;99.90
76838;DHT22;65797;47.352;8.164;2023-03-02T07:17:08;1.80;99.90
76838;DHT22;65797;47.352;8.164;2023-03-02T07:19:34;1.80;99.90
76838;DHT22;65797;47.352;8.164;2023-03-02T07:21:59;1.80;99.90
76838;DHT22;65797;47.352;8.164;2023-03-02T07:24:25;1.80;99.90
76838;DHT22;65797;47.352;8.164;2023-03-02T07:26:54;1.80;99.90
76838;DHT22;65797;47.352;8.164;2023-03-02T07:29:19;1.80;99.90
76838;DHT22;65797;47.352;8.164;2023-03-02T07:31:45;1.90;99.90
76838;DHT22;65797;47.352;8.164;2023-03-02T07:34:11;1.90;99.90
76838;DHT22;65797;47.352;8.164;2023-03-02T07:36:36;1.90;99.90
76838;DHT22;65797;47.352;8.164;2023-03-02T07:39:02;1.90;70.40
76838;DHT22;65797;47.352;8.164;2023-03-02T07:41:28;1.90;65.00
76838;DHT22;65797;47.352;8.164;2023-03-02T07:43:54;1.90;91.30
76838;DHT22;65797;47.352;8.164;2023-03-02T07:46:20;2.00;94.70
76838;DHT22;65797;47.352;8.164;2023-03-02T07:48:46;2.00;62.20
76838;DHT22;65797;47.352;8.164;2023-03-02T07:51:11;2.00;25.80
76838;DHT22;65797;47.352;8.164;2023-03-02T07:53:37;2.00;5.00
76838;DHT22;65797;47.352;8.164;2023-03-02T07:56:10;2.10;1.80
76838;DHT22;65797;47.352;8.164;2023-03-02T07:58:36;2.10;2.90
76838;DHT22;65797;47.352;8.164;2023-03-02T08:01:03;2.10;1.00
76838;DHT22;65797;47.352;8.164;2023-03-02T08:03:29;2.20;7.30
76838;DHT22;65797;47.352;8.164;2023-03-02T08:05:54;2.20;73.90
76838;DHT22;65797;47.352;8.164;2023-03-02T08:08:20;2.20;1.00
76838;DHT22;65797;47.352;8.164;2023-03-02T08:10:46;2.20;1.00
76838;DHT22;65797;47.352;8.164;2023-03-02T08:13:11;2.20;3.30
76838;DHT22;65797;47.352;8.164;2023-03-02T08:15:37;2.40;1.00
76838;DHT22;65797;47.352;8.164;2023-03-02T08:18:03;2.30;1.00
76838;DHT22;65797;47.352;8.164;2023-03-02T08:20:29;2.30;1.00
76838;DHT22;65797;47.352;8.164;2023-03-02T08:22:54;2.30;34.30
76838;DHT22;65797;47.352;8.164;2023-03-02T08:25:20;2.40;23.10
76838;DHT22;65797;47.352;8.164;2023-03-02T08:27:46;2.40;16.50
76838;DHT22;65797;47.352;8.164;2023-03-02T08:30:11;2.50;1.00
76838;DHT22;65797;47.352;8.164;2023-03-02T08:32:38;2.50;1.00
76838;DHT22;65797;47.352;8.164;2023-03-02T08:35:04;2.60;1.00
76838;DHT22;65797;47.352;8.164;2023-03-02T08:37:30;2.60;1.00
76838;DHT22;65797;47.352;8.164;2023-03-02T08:39:56;2.60;1.00
76838;DHT22;65797;47.352;8.164;2023-03-02T08:42:22;2.70;1.00
76838;DHT22;65797;47.352;8.164;2023-03-02T08:44:48;2.70;1.00
76838;DHT22;65797;47.352;8.164;2023-03-02T08:47:14;2.70;1.00
76838;DHT22;65797;47.352;8.164;2023-03-02T08:49:39;2.70;1.00
76838;DHT22;65797;47.352;8.164;2023-03-02T08:52:05;2.70;1.00
76838;DHT22;65797;47.352;8.164;2023-03-02T08:54:32;2.80;1.00
76838;DHT22;65797;47.352;8.164;2023-03-02T08:57:00;2.80;1.00
76838;DHT22;65797;47.352;8.164;2023-03-02T08:59:26;2.80;1.00
76838;DHT22;65797;47.352;8.164;2023-03-02T09:01:51;2.90;1.00
76838;DHT22;65797;47.352;8.164;2023-03-02T09:04:17;3.00;1.00
76838;DHT22;65797;47.352;8.164;2023-03-02T09:06:43;2.90;1.00
76838;DHT22;65797;47.352;8.164;2023-03-02T09:09:11;2.90;1.00
76838;DHT22;65797;47.352;8.164;2023-03-02T09:11:37;2.90;1.00
76838;DHT22;65797;47.352;8.164;2023-03-02T09:14:04;2.90;1.00
76838;DHT22;65797;47.352;8.164;2023-03-02T09:16:30;2.90;1.00
76838;DHT22;65797;47.352;8.164;2023-03-02T09:18:56;2.90;1.00
76838;DHT22;65797;47.352;8.164;2023-03-02T09:21:22;3.00;1.00
76838;DHT22;65797;47.352;8.164;2023-03-02T09:23:48;3.00;1.00
76838;DHT22;65797;47.352;8.164;2023-03-02T09:26:18;3.10;1.00
76838;DHT22;65797;47.352;8.164;2023-03-02T09:28:44;3.10;1.00
76838;DHT22;65797;47.352;8.164;2023-03-02T09:31:10;3.10;1.00
76838;DHT22;65797;47.352;8.164;2023-03-02T09:33:36;3.20;1.00
76838;DHT22;65797;47.352;8.164;2023-03-02T09:36:06;3.30;1.00
76838;DHT22;65797;47.352;8.164;2023-03-02T09:38:32;3.30;1.00
76838;DHT22;65797;47.352;8.164;2023-03-02T09:54:23;3.10;1.00
76838;DHT22;65797;47.352;8.164;2023-03-02T09:56:53;3.20;1.00
76838;DHT22;65797;47.352;8.164;2023-03-02T09:59:20;3.30;1.00
76838;DHT22;65797;47.352;8.164;2023-03-02T10:01:57;3.40;1.00
76838;DHT22;65797;47.352;8.164;2023-03-02T10:04:35;3.50;99.90
76838;DHT22;65797;47.352;8.164;2023-03-02T10:07:32;3.40;1.00
76838;DHT22;65797;47.352;8.164;2023-03-02T10:26:54;3.70;99.90
76838;DHT22;65797;47.352;8.164;2023-03-02T10:32:19;3.70;99.90
76838;DHT22;65797;47.352;8.164;2023-03-02T10:34:46;3.70;99.90
76838;DHT22;65797;47.352;8.164;2023-03-02T10:37:24;3.70;99.90
76838;DHT22;65797;47.352;8.164;2023-03-02T10:39:54;3.70;99.90
76838;DHT22;65797;47.352;8.164;2023-03-02T10:42:32;3.60;99.90
76838;DHT22;65797;47.352;8.164;2023-03-02T10:45:26;3.60;99.90
76838;DHT22;65797;47.352;8.164;2023-03-02T10:48:07;3.60;99.90
76838;DHT22;65797;47.352;8.164;2023-03-02T10:50:35;3.60;99.90
76838;DHT22;65797;47.352;8.164;2023-03-02T10:53:01;3.60;99.90
76838;DHT22;65797;47.352;8.164;2023-03-02T10:55:28;3.60;99.90
76838;DHT22;65797;47.352;8.164;2023-03-02T10:58:22;3.70;99.90
76838;DHT22;65797;47.352;8.164;2023-03-02T11:01:15;3.70;99.90
76838;DHT22;65797;47.352;8.164;2023-03-02T11:03:41;3.80;99.90
76838;DHT22;65797;47.352;8.164;2023-03-02T11:06:26;3.80;99.90
76838;DHT22;65797;47.352;8.164;2023-03-02T11:09:00;3.90;99.90
76838;DHT22;65797;47.352;8.164;2023-03-02T11:11:27;3.90;99.90
76838;DHT22;65797;47.352;8.164;2023-03-02T11:13:53;3.90;99.90
76838;DHT22;65797;47.352;8.164;2023-03-02T11:16:30;3.90;99.90
76838;DHT22;65797;47.352;8.164;2023-03-02T11:18:59;4.00;99.90
76838;DHT22;65797;47.352;8.164;2023-03-02T11:21:33;3.90;99.90
76838;DHT22;65797;47.352;8.164;2023-03-02T11:24:25;3.90;99.90
76838;DHT22;65797;47.352;8.164;2023-03-02T11:26:55;4.10;99.90
76838;DHT22;65797;47.352;8.164;2023-03-02T11:32:16;4.00;99.90
76838;DHT22;65797;47.352;8.164;2023-03-02T11:34:59;4.00;99.90
76838;DHT22;65797;47.352;8.164;2023-03-02T11:37:35;4.10;99.90
76838;DHT22;65797;47.352;8.164;2023-03-02T11:43:07;4.00;99.90
76838;DHT22;65797;47.352;8.164;2023-03-02T11:45:40;4.00;99.90
76838;DHT22;65797;47.352;8.164;2023-03-02T11:48:32;3.90;99.90
76838;DHT22;65797;47.352;8.164;2023-03-02T11:51:13;3.90;99.90
76838;DHT22;65797;47.352;8.164;2023-03-02T11:53:50;4.00;99.90
76838;DHT22;65797;47.352;8.164;2023-03-02T11:56:17;4.10;99.90
76838;DHT22;65797;47.352;8.164;2023-03-02T11:58:44;4.10;99.90
76838;DHT22;65797;47.352;8.164;2023-03-02T12:01:17;4.00;99.90
76838;DHT22;65797;47.352;8.164;2023-03-02T12:03:45;4.10;99.90
76838;DHT22;65797;47.352;8.164;2023-03-02T12:08:44;4.30;99.90
76838;DHT22;65797;47.352;8.164;2023-03-02T12:13:57;4.40;99.90
76838;DHT22;65797;47.352;8.164;2023-03-02T12:16:38;4.40;99.90
76838;DHT22;65797;47.352;8.164;2023-03-02T12:19:28;4.50;99.90
76838;DHT22;65797;47.352;8.164;2023-03-02T12:22:07;4.50;99.90
76838;DHT22;65797;47.352;8.164;2023-03-02T12:24:40;4.60;99.90
76838;DHT22;65797;47.352;8.164;2023-03-02T12:27:22;4.50;99.90
76838;DHT22;65797;47.352;8.164;2023-03-02T12:30:18;4.40;99.90
76838;DHT22;65797;47.352;8.164;2023-03-02T12:35:36;4.50;99.90
76838;DHT22;65797;47.352;8.164;2023-03-02T12:38:05;4.40;99.90
76838;DHT22;65797;47.352;8.164;2023-03-02T12:46:45;4.90;99.90
76838;DHT22;65797;47.352;8.164;2023-03-02T12:52:01;4.90;99.90
76838;DHT22;65797;47.352;8.164;2023-03-02T12:54:30;4.80;99.90
76838;DHT22;65797;47.352;8.164;2023-03-02T12:57:14;4.80;99.90
76838;DHT22;65797;47.352;8.164;2023-03-02T12:59:41;4.90;99.90
76838;DHT22;65797;47.352;8.164;2023-03-02T13:02:19;5.00;99.90
76838;DHT22;65797;47.352;8.164;2023-03-02T13:04:55;5.00;99.90
76838;DHT22;65797;47.352;8.164;2023-03-02T13:07:25;5.00;99.90
76838;DHT22;65797;47.352;8.164;2023-03-02T13:09:53;4.90;99.90
76838;DHT22;65797;47.352;8.164;2023-03-02T13:12:19;4.60;99.90
76838;DHT22;65797;47.352;8.164;2023-03-02T13:14:51;4.70;99.90
76838;DHT22;65797;47.352;8.164;2023-03-02T13:17:35;4.70;99.90
76838;DHT22;65797;47.352;8.164;2023-03-02T13:20:03;4.60;99.90
76838;DHT22;65797;47.352;8.164;2023-03-02T13:22:29;4.60;99.90
76838;DHT22;65797;47.352;8.164;2023-03-02T13:24:59;4.60;99.90
76838;DHT22;65797;47.352;8.164;2023-03-02T13:27:27;4.70;99.90
76838;DHT22;65797;47.352;8.164;2023-03-02T13:29:53;4.60;99.90
76838;DHT22;65797;47.352;8.164;2023-03-02T13:32:34;4.50;99.90
76838;DHT22;65797;47.352;8.164;2023-03-02T13:35:01;4.60;99.90
76838;DHT22;65797;47.352;8.164;2023-03-02T13:37:36;4.70;99.90
76838;DHT22;65797;47.352;8.164;2023-03-02T13:42:56;4.90;99.90
76838;DHT22;65797;47.352;8.164;2023-03-02T13:45:26;5.00;99.90
76838;DHT22;65797;47.352;8.164;2023-03-02T13:47:54;4.70;99.90
76838;DHT22;65797;47.352;8.164;2023-03-02T13:50:24;4.80;99.90
76838;DHT22;65797;47.352;8.164;2023-03-02T13:52:51;5.00;99.90
76838;DHT22;65797;47.352;8.164;2023-03-02T13:55:19;4.90;99.90
76838;DHT22;65797;47.352;8.164;2023-03-02T13:57:45;4.80;99.90
76838;DHT22;65797;47.352;8.164;2023-03-02T14:00:20;4.90;99.90
76838;DHT22;65797;47.352;8.164;2023-03-02T14:02:47;5.00;99.90
76838;DHT22;65797;47.352;8.164;2023-03-02T14:05:20;5.20;99.90
76838;DHT22;65797;47.352;8.164;2023-03-02T14:07:46;5.40;99.90
76838;DHT22;65797;47.352;8.164;2023-03-02T14:10:16;5.30;99.90
76838;DHT22;65797;47.352;8.164;2023-03-02T14:12:47;5.40;99.90
76838;DHT22;65797;47.352;8.164;2023-03-02T14:15:17;5.40;99.90
76838;DHT22;65797;47.352;8.164;2023-03-02T14:17:42;5.30;99.90
76838;DHT22;65797;47.352;8.164;2023-03-02T14:20:14;5.40;99.90
76838;DHT22;65797;47.352;8.164;2023-03-02T14:22:40;5.50;99.90
76838;DHT22;65797;47.352;8.164;2023-03-02T14:25:06;5.60;99.90
76838;DHT22;65797;47.352;8.164;2023-03-02T14:27:32;5.60;99.90
76838;DHT22;65797;47.352;8.164;2023-03-02T14:29:58;5.50;99.90
76838;DHT22;65797;47.352;8.164;2023-03-02T14:32:25;5.60;99.90
76838;DHT22;65797;47.352;8.164;2023-03-02T14:34:51;5.90;99.90
76838;DHT22;65797;47.352;8.164;2023-03-02T14:37:19;6.00;99.90
76838;DHT22;65797;47.352;8.164;2023-03-02T14:39:48;5.90;99.90
76838;DHT22;65797;47.352;8.164;2023-03-02T14:42:20;5.90;99.90
76838;DHT22;65797;47.352;8.164;2023-03-02T14:44:47;6.00;99.90
76838;DHT22;65797;47.352;8.164;2023-03-02T14:47:14;6.10;99.90
76838;DHT22;65797;47.352;8.164;2023-03-02T14:49:42;6.00;99.90
76838;DHT22;65797;47.352;8.164;2023-03-02T14:52:16;5.90;99.90
76838;DHT22;65797;47.352;8.164;2023-03-02T14:54:48;5.90;99.90
76838;DHT22;65797;47.352;8.164;2023-03-02T14:57:24;6.10;99.90
76838;DHT22;65797;47.352;8.164;2023-03-02T14:59:50;6.00;99.90
76838;DHT22;65797;47.352;8.164;2023-03-02T15:02:16;6.20;99.90
76838;DHT22;65797;47.352;8.164;2023-03-02T15:04:43;6.20;99.90
76838;DHT22;65797;47.352;8.164;2023-03-02T15:07:13;6.00;99.90
76838;DHT22;65797;47.352;8.164;2023-03-02T15:09:42;6.00;99.90
76838;DHT22;65797;47.352;8.164;2023-03-02T15:12:08;5.90;99.90
76838;DHT22;65797;47.352;8.164;2023-03-02T15:14:34;5.80;99.90
76838;DHT22;65797;47.352;8.164;2023-03-02T15:17:00;5.80;99.90
76838;DHT22;65797;47.352;8.164;2023-03-02T15:19:26;5.90;99.90
76838;DHT22;65797;47.352;8.164;2023-03-02T15:21:52;5.70;99.90
76838;DHT22;65797;47.352;8.164;2023-03-02T15:24:17;5.50;99.90
76838;DHT22;65797;47.352;8.164;2023-03-02T15:26:47;5.60;99.90
76838;DHT22;65797;47.352;8.164;2023-03-02T15:29:13;5.60;99.90
76838;DHT22;65797;47.352;8.164;2023-03-02T15:31:38;5.60;99.90
76838;DHT22;65797;47.352;8.164;2023-03-02T15:34:04;5.50;99.90
76838;DHT22;65797;47.352;8.164;2023-03-02T15:36:30;5.50;99.90
76838;DHT22;65797;47.352;8.164;2023-03-02T15:38:56;5.40;99.90
76838;DHT22;65797;47.352;8.164;2023-03-02T15:41:21;5.40;99.90
76838;DHT22;65797;47.352;8.164;2023-03-02T15:43:51;5.40;99.90
76838;DHT22;65797;47.352;8.164;2023-03-02T15:46:20;5.30;99.90
76838;DHT22;65797;47.352;8.164;2023-03-02T15:48:46;5.30;99.90
76838;DHT22;65797;47.352;8.164;2023-03-02T15:51:12;5.20;99.90
76838;DHT22;65797;47.352;8.164;2023-03-02T15:53:38;5.10;99.90
76838;DHT22;65797;47.352;8.164;2023-03-02T15:56:05;5.10;99.90
76838;DHT22;65797;47.352;8.164;2023-03-02T15:58:32;5.10;99.90
76838;DHT22;65797;47.352;8.164;2023-03-02T16:00:58;5.10;99.90
76838;DHT22;65797;47.352;8.164;2023-03-02T16:03:24;5.00;99.90
76838;DHT22;65797;47.352;8.164;2023-03-02T18:13:58;2.50;1.00
76838;DHT22;65797;47.352;8.164;2023-03-02T18:16:25;2.50;1.00
76838;DHT22;65797;47.352;8.164;2023-03-02T18:18:52;2.40;1.00
76838;DHT22;65797;47.352;8.164;2023-03-02T19:44:22;0.60;1.00
76838;DHT22;65797;47.352;8.164;2023-03-02T19:49:25;0.50;1.00
76838;DHT22;65797;47.352;8.164;2023-03-02T19:51:51;0.50;1.00
76838;DHT22;65797;47.352;8.164;2023-03-02T19:54:17;0.50;1.00
76838;DHT22;65797;47.352;8.164;2023-03-02T19:59:22;0.40;1.00
76838;DHT22;65797;47.352;8.164;2023-03-02T20:40:37;-0.20;33.50
76838;DHT22;65797;47.352;8.164;2023-03-02T20:48:14;-0.30;99.90
76838;DHT22;65797;47.352;8.164;2023-03-02T20:50:40;-0.30;99.90
76838;DHT22;65797;47.352;8.164;2023-03-02T22:36:23;-1.40;88.10
76838;DHT22;65797;47.352;8.164;2023-03-02T22:54:24;-1.30;99.90
76838;DHT22;65797;47.352;8.164;2023-03-02T22:59:34;-1.20;99.90
76838;DHT22;65797;47.352;8.164;2023-03-02T23:02:01;-1.20;1.00
76838;DHT22;65797;47.352;8.164;2023-03-02T23:04:36;-1.20;1.00
76838;DHT22;65797;47.352;8.164;2023-03-02T23:51:01;-0.70;1.00
76838;DHT22;65797;47.352;8.164;2023-03-02T23:53:26;-0.70;1.00
76838;DHT22;65797;47.352;8.164;2023-03-02T23:55:53;-0.70;1.00
76838;DHT22;65797;47.352;8.164;2023-03-02T23:58:20;-0.60;1.00
